Time;durP1;ratioP1;P1;durP2;ratioP2;P2;SDS_P1;SDS_P2;PMS_P1;PMS_P2;Temp;Humidity;BMP_temperature;BMP_pressure;BME280_temperature;BME280_humidity;BME280_pressure;Samples;Min_cycle;Max_cycle;Signal;HPM_P1;HPM_P2
2021/12/10 00:01:08;;;;;;;42.53;21.88;;;;;;;3.25;100.00;99391.69;5008961;28;20581;-84
2021/12/10 00:03:47;;;;;;;36.90;22.52;;;;;;;3.23;100.00;99398.13;5024419;28;20050;-85
2021/12/10 00:06:17;;;;;;;45.13;25.65;;;;;;;3.21;100.00;99389.47;5025602;28;20037;-84
2021/12/10 00:08:56;;;;;;;39.45;22.48;;;;;;;3.17;100.00;99383.63;5010604;28;20184;-83
2021/12/10 00:11:32;;;;;;;46.50;24.33;;;;;;;3.17;100.00;99381.00;5009887;28;20144;-84
2021/12/10 00:13:58;;;;;;;46.58;26.75;;;;;;;3.15;100.00;99370.53;5024458;28;20041;-84
2021/12/10 00:16:25;;;;;;;38.95;22.80;;;;;;;3.12;100.00;99367.34;5028300;28;20128;-85
2021/12/10 00:19:14;;;;;;;45.25;23.40;;;;;;;3.10;100.00;99367.47;5046576;28;20045;-84
2021/12/10 00:21:40;;;;;;;46.70;23.55;;;;;;;3.07;100.00;99356.34;5028168;28;20049;-84
2021/12/10 00:24:10;;;;;;;44.45;24.80;;;;;;;3.05;100.00;99361.81;5046251;28;20041;-84
2021/12/10 00:26:39;;;;;;;42.53;23.48;;;;;;;3.06;100.00;99346.75;5025244;28;20037;-84
2021/12/10 00:29:07;;;;;;;48.53;25.02;;;;;;;3.04;100.00;99344.25;5022870;28;20037;-83
2021/12/10 00:31:57;;;;;;;48.00;25.60;;;;;;;3.01;100.00;99335.75;5024297;28;20119;-85
2021/12/10 00:34:32;;;;;;;45.30;28.98;;;;;;;2.98;100.00;99328.13;5017649;28;20284;-85
2021/12/10 00:37:02;;;;;;;46.30;27.15;;;;;;;2.96;100.00;99325.59;5042767;28;20032;-85
2021/12/10 00:39:38;;;;;;;45.28;27.50;;;;;;;2.98;100.00;99320.16;5028020;28;20073;-85
2021/12/10 00:42:08;;;;;;;50.13;29.17;;;;;;;2.90;100.00;99313.78;5024856;28;20053;-85
2021/12/10 00:44:39;;;;;;;48.45;25.27;;;;;;;2.85;100.00;99305.50;5011259;28;20524;-85
2021/12/10 00:47:04;;;;;;;46.47;26.35;;;;;;;2.84;100.00;99303.81;4989099;28;20041;-84
2021/12/10 00:49:33;;;;;;;48.90;27.05;;;;;;;2.83;100.00;99299.50;5008591;28;20052;-84
2021/12/10 00:52:02;;;;;;;;;;;;;;;2.78;100.00;99298.28;5043920;28;20044;-85
2021/12/10 00:54:28;;;;;;;44.58;27.70;;;;;;;2.67;100.00;99304.63;5009878;28;20542;-84
2021/12/10 00:56:54;;;;;;;46.90;26.88;;;;;;;2.66;100.00;99305.63;5027324;28;20169;-84
2021/12/10 00:59:21;;;;;;;41.08;25.48;;;;;;;2.67;100.00;99310.75;5028252;28;20053;-84
2021/12/10 01:01:50;;;;;;;48.17;24.63;;;;;;;2.64;100.00;99302.28;5012006;28;20432;-84
2021/12/10 01:04:26;;;;;;;43.78;26.58;;;;;;;2.59;100.00;99300.09;5035445;28;20122;-86
2021/12/10 01:07:00;;;;;;;46.88;27.02;;;;;;;2.58;100.00;99292.28;5024652;28;20041;-84
2021/12/10 01:09:31;;;;;;;42.00;23.95;;;;;;;2.58;100.00;99289.63;5043280;28;20045;-84
2021/12/10 01:12:06;;;;;;;41.20;26.77;;;;;;;2.58;100.00;99289.63;5042790;28;20041;-84
2021/12/10 01:26:38;;;;;;;39.75;23.20;;;;;;;2.41;100.00;99252.38;5043420;28;20140;-84
2021/12/10 01:28:59;;;;;;;36.15;23.95;;;;;;;2.39;100.00;99254.38;5042182;28;20044;-83
2021/12/10 01:31:28;;;;;;;36.17;22.58;;;;;;;2.41;100.00;99249.75;5026976;28;20033;-84
2021/12/10 01:33:54;;;;;;;34.50;21.02;;;;;;;2.44;100.00;99238.84;5038143;28;20041;-83
2021/12/10 01:36:21;;;;;;;38.08;22.33;;;;;;;2.43;100.00;99239.84;5028582;28;20120;-84
2021/12/10 01:38:51;;;;;;;34.05;22.15;;;;;;;2.47;100.00;99237.72;4986589;28;20061;-84
2021/12/10 01:41:19;;;;;;;30.77;19.15;;;;;;;2.40;100.00;99232.19;5006766;28;20064;-84
2021/12/10 01:43:52;;;;;;;30.05;20.40;;;;;;;2.42;100.00;99234.72;5022839;28;20429;-85
2021/12/10 01:46:27;;;;;;;27.65;17.98;;;;;;;2.43;100.00;99237.19;5024432;28;20061;-84
2021/12/10 01:49:03;;;;;;;29.83;19.08;;;;;;;2.44;100.00;99230.91;5010338;28;20041;-84
2021/12/10 01:51:36;;;;;;;30.98;19.83;;;;;;;2.46;100.00;99238.72;5017763;28;20715;-84
2021/12/10 01:54:23;;;;;;;28.20;17.40;;;;;;;2.48;100.00;99237.56;5006286;28;20041;-84
2021/12/10 01:56:56;;;;;;;25.95;17.80;;;;;;;2.51;100.00;99238.28;5021442;28;20048;-84
2021/12/10 01:59:27;;;;;;;26.15;17.27;;;;;;;2.52;100.00;99237.28;5021876;28;20041;-84
2021/12/10 02:01:57;;;;;;;25.10;16.15;;;;;;;2.55;100.00;99229.84;4982139;28;20057;-84
2021/12/10 02:04:26;;;;;;;24.23;14.70;;;;;;;2.55;100.00;99221.91;5023963;28;20120;-84
2021/12/10 02:06:53;;;;;;;;;;;;;;;2.57;100.00;99222.59;5020757;28;20045;-84
2021/12/10 02:09:19;;;;;;;23.35;13.32;;;;;;;2.51;100.00;99217.09;5023594;28;19913;-84
2021/12/10 02:11:45;;;;;;;24.20;13.90;;;;;;;2.53;100.00;99212.44;5019962;28;20032;-84
2021/12/10 02:14:11;;;;;;;22.05;14.68;;;;;;;2.54;100.00;99206.19;5039059;28;20123;-85
2021/12/10 02:16:38;;;;;;;24.52;14.95;;;;;;;2.58;100.00;99207.53;5022839;28;20076;-84
2021/12/10 02:19:06;;;;;;;25.10;16.95;;;;;;;2.57;100.00;99205.88;5035528;28;20587;-83
2021/12/10 02:21:34;;;;;;;23.00;16.02;;;;;;;2.58;100.00;99191.66;5024833;28;20439;-84
2021/12/10 02:24:03;;;;;;;23.15;15.82;;;;;;;2.57;100.00;99190.00;5041572;28;20149;-84
2021/12/10 02:26:36;;;;;;;22.13;14.93;;;;;;;2.54;100.00;99195.59;5026976;28;20038;-84
2021/12/10 02:29:06;;;;;;;21.08;15.23;;;;;;;2.54;100.00;99185.84;5025277;28;20049;-84
2021/12/10 02:31:33;;;;;;;25.85;15.60;;;;;;;2.52;100.00;99176.38;5025012;28;20154;-85
2021/12/10 02:34:01;;;;;;;23.20;16.27;;;;;;;2.54;100.00;99185.84;5022933;28;20045;-84
2021/12/10 02:36:34;;;;;;;23.92;15.50;;;;;;;2.50;100.00;99171.22;5026964;28;20041;-84
2021/12/10 02:39:04;;;;;;;24.85;15.02;;;;;;;2.47;100.00;99164.44;5020956;28;20050;-85
2021/12/10 02:41:32;;;;;;;24.13;15.77;;;;;;;2.48;100.00;99170.56;5010054;28;20120;-85
2021/12/10 02:44:00;;;;;;;23.80;15.90;;;;;;;2.39;100.00;99160.88;5025128;28;20041;-85
2021/12/10 02:46:30;;;;;;;25.02;16.33;;;;;;;2.40;100.00;99158.06;5037629;28;20049;-84
2021/12/10 02:49:04;;;;;;;25.50;15.00;;;;;;;2.36;100.00;99150.56;5028196;28;20045;-84
2021/12/10 02:51:32;;;;;;;22.35;15.73;;;;;;;2.34;100.00;99149.91;5028372;28;20048;-85
2021/12/10 02:54:03;;;;;;;20.98;12.82;;;;;;;2.30;100.00;99146.72;5027756;28;20042;-85
2021/12/10 02:56:39;;;;;;;23.10;15.23;;;;;;;2.31;100.00;99132.50;5028398;28;20085;-84
2021/12/10 02:59:05;;;;;;;21.70;14.70;;;;;;;2.29;100.00;99134.47;5043628;28;20041;-85
2021/12/10 03:01:41;;;;;;;25.23;14.40;;;;;;;2.24;100.00;99131.44;5046227;28;20033;-84
2021/12/10 03:04:09;;;;;;;20.92;15.60;;;;;;;2.24;100.00;99119.06;5030817;28;20045;-84
2021/12/10 03:06:44;;;;;;;23.60;15.40;;;;;;;2.23;100.00;99119.19;4995851;28;20067;-86
2021/12/10 03:09:12;;;;;;;19.27;13.00;;;;;;;2.13;100.00;99123.72;5062223;28;20578;-84
2021/12/10 03:11:46;;;;;;;24.15;16.10;;;;;;;2.14;100.00;99115.66;5049175;28;20037;-85
2021/12/10 03:14:13;;;;;;;20.63;13.75;;;;;;;2.10;100.00;99109.00;5046926;28;20063;-85
2021/12/10 03:16:41;;;;;;;22.00;14.75;;;;;;;2.03;100.00;99108.75;5011325;28;20036;-84
2021/12/10 03:19:09;;;;;;;21.80;14.88;;;;;;;2.02;100.00;99112.38;5030660;28;20074;-84
2021/12/10 03:21:44;;;;;;;25.33;16.77;;;;;;;2.02;100.00;99096.50;5028401;28;20076;-84
2021/12/10 03:24:13;;;;;;;21.70;15.95;;;;;;;1.99;100.00;99106.56;5047724;28;20412;-84
2021/12/10 03:26:39;;;;;;;;;;;;;;;1.98;100.00;99095.13;5029039;28;20049;-83
2021/12/10 03:29:07;;;;;;;25.17;15.77;;;;;;;1.85;100.00;99092.03;5029927;28;19913;-84
2021/12/10 03:31:33;;;;;;;24.17;15.60;;;;;;;1.80;100.00;99092.47;5025405;28;20030;-84
2021/12/10 03:33:59;;;;;;;25.83;18.00;;;;;;;1.87;100.00;99098.03;5006415;28;20045;-84
2021/12/10 03:36:26;;;;;;;27.52;16.38;;;;;;;1.87;100.00;99089.22;4989085;28;20655;-84
2021/12/10 03:38:55;;;;;;;25.83;16.80;;;;;;;1.88;100.00;99091.75;5027545;28;20140;-84
2021/12/10 03:41:23;;;;;;;25.52;15.05;;;;;;;1.85;100.00;99086.75;5008306;28;20037;-83
2021/12/10 03:43:53;;;;;;;25.42;15.63;;;;;;;1.80;100.00;99076.63;5009424;28;20398;-84
2021/12/10 03:46:21;;;;;;;22.35;15.80;;;;;;;1.79;100.00;99076.78;5003749;28;20041;-83
2021/12/10 03:48:49;;;;;;;24.75;15.70;;;;;;;1.79;100.00;99063.56;5020418;28;20065;-85
2021/12/10 03:51:22;;;;;;;23.55;16.85;;;;;;;1.78;100.00;99062.72;5028008;28;20549;-84
2021/12/10 03:53:56;;;;;;;23.77;14.95;;;;;;;1.77;100.00;99058.41;5009154;28;20072;-85
2021/12/10 03:56:27;;;;;;;22.38;16.23;;;;;;;1.76;100.00;99064.69;4993925;28;20393;-85
2021/12/10 03:58:56;;;;;;;22.63;14.35;;;;;;;1.72;100.00;99062.47;5008332;28;20084;-84
2021/12/10 04:01:28;;;;;;;19.70;13.43;;;;;;;1.73;100.00;99053.59;5027513;28;20063;-84
2021/12/10 04:03:56;;;;;;;22.60;15.23;;;;;;;1.71;100.00;99056.38;5019781;28;20095;-84
2021/12/10 04:06:29;;;;;;;25.70;14.90;;;;;;;1.71;100.00;99056.38;5008880;28;20038;-84
2021/12/10 04:08:56;;;;;;;20.75;14.40;;;;;;;1.71;100.00;99039.66;5009175;28;20068;-84
2021/12/10 04:11:25;;;;;;;20.88;13.57;;;;;;;1.66;100.00;99036.63;5026086;28;20065;-83
2021/12/10 04:13:52;;;;;;;22.60;14.90;;;;;;;1.64;100.00;99030.66;4992162;28;20493;-84
2021/12/10 04:16:18;;;;;;;21.90;15.85;;;;;;;1.63;100.00;99036.94;5021409;28;20073;-83
2021/12/10 04:18:46;;;;;;;21.20;14.38;;;;;;;1.57;100.00;99039.19;5022422;28;20039;-84
2021/12/10 04:21:13;;;;;;;26.13;15.20;;;;;;;1.55;100.00;99024.47;5035157;28;20073;-84
2021/12/10 04:23:48;;;;;;;19.27;14.25;;;;;;;1.55;100.00;99017.38;5043535;28;20097;-84
2021/12/10 04:26:17;;;;;;;22.83;14.95;;;;;;;1.52;100.00;99017.66;5008695;28;20643;-85
2021/12/10 04:28:43;;;;;;;20.42;13.00;;;;;;;1.45;100.00;99016.59;5003013;28;20038;-85
2021/12/10 04:31:11;;;;;;;19.50;12.18;;;;;;;1.50;100.00;99009.06;5008059;28;20033;-85
2021/12/10 04:33:39;;;;;;;21.67;13.00;;;;;;;1.49;100.00;99006.56;5042442;28;20068;-84
2021/12/10 04:36:07;;;;;;;21.42;13.18;;;;;;;1.45;100.00;99002.56;5029220;28;20159;-85
2021/12/10 04:38:34;;;;;;;20.88;14.00;;;;;;;1.44;100.00;98999.09;5046404;28;20478;-83
2021/12/10 04:41:09;;;;;;;21.48;13.75;;;;;;;1.44;100.00;99006.16;5042676;28;20524;-84
2021/12/10 04:43:36;;;;;;;20.67;13.38;;;;;;;1.42;100.00;99001.03;5040860;28;20048;-84
2021/12/10 04:46:08;;;;;;;20.30;14.23;;;;;;;1.44;100.00;99004.38;5011482;28;20037;-84
2021/12/10 04:48:53;;;;;;;22.05;13.13;;;;;;;1.42;100.00;98987.81;4987605;28;20138;-84
2021/12/10 04:51:33;;;;;;;23.95;14.52;;;;;;;1.43;100.00;98993.94;5028828;28;20041;-85
2021/12/10 04:53:59;;;;;;;22.95;13.80;;;;;;;1.37;100.00;98984.78;5044608;28;20041;-84
2021/12/10 04:56:28;;;;;;;19.63;12.38;;;;;;;1.37;100.00;98983.97;5042347;28;20404;-84
2021/12/10 04:58:54;;;;;;;22.75;13.85;;;;;;;1.34;100.00;98980.63;5005385;28;20124;-84
2021/12/10 05:01:21;;;;;;;22.65;13.55;;;;;;;1.34;100.00;98975.34;5031981;28;20038;-83
2021/12/10 05:03:47;;;;;;;21.33;12.65;;;;;;;1.34;100.00;98977.16;5037154;28;20549;-84
2021/12/10 05:06:14;;;;;;;21.08;12.38;;;;;;;1.32;100.00;98965.91;4993055;28;20046;-84
2021/12/10 05:08:41;;;;;;;21.33;13.38;;;;;;;1.35;100.00;98958.53;5038026;28;20071;-84
2021/12/10 05:11:09;;;;;;;17.33;12.25;;;;;;;1.32;100.00;98960.63;5025119;28;20064;-83
2021/12/10 05:13:36;;;;;;;22.40;12.50;;;;;;;1.29;100.00;98960.91;4991287;28;20129;-84
2021/12/10 05:16:06;;;;;;;22.23;12.10;;;;;;;1.28;100.00;98951.34;5041190;28;20072;-84
2021/12/10 05:18:35;;;;;;;;;;;;;;;1.33;100.00;98951.72;5027263;28;20589;-84
2021/12/10 05:21:02;;;;;;;19.65;11.88;;;;;;;1.23;100.00;98951.78;5049669;28;19941;-84
2021/12/10 05:23:27;;;;;;;16.42;11.07;;;;;;;1.25;100.00;98951.63;5030781;28;20044;-84
2021/12/10 05:25:53;;;;;;;15.63;10.05;;;;;;;1.21;100.00;98947.63;5047739;28;20420;-83
2021/12/10 05:28:19;;;;;;;18.35;10.82;;;;;;;1.22;100.00;98939.56;5013913;28;20128;-84
2021/12/10 05:30:45;;;;;;;16.83;10.88;;;;;;;1.27;100.00;98942.59;5018896;28;20038;-84
2021/12/10 05:33:16;;;;;;;18.67;11.73;;;;;;;1.26;100.00;98937.44;5007798;28;20053;-84
2021/12/10 05:35:43;;;;;;;16.40;9.95;;;;;;;1.25;100.00;98931.31;5009244;28;20044;-85
2021/12/10 05:38:09;;;;;;;17.27;9.90;;;;;;;1.27;100.00;98925.91;5025309;28;20095;-85
2021/12/10 05:40:35;;;;;;;18.17;9.68;;;;;;;1.26;100.00;98930.34;5022502;28;20449;-84
2021/12/10 05:43:00;;;;;;;13.55;9.20;;;;;;;1.26;100.00;98929.50;5022247;28;20133;-85
2021/12/10 05:45:26;;;;;;;17.10;9.77;;;;;;;1.26;100.00;98925.06;5009314;28;20065;-84
2021/12/10 05:47:52;;;;;;;17.20;9.15;;;;;;;1.22;100.00;98912.31;5027048;28;20037;-84
2021/12/10 05:50:20;;;;;;;14.55;8.95;;;;;;;1.22;100.00;98907.03;5027731;28;20045;-84
2021/12/10 05:52:46;;;;;;;14.77;9.23;;;;;;;1.20;100.00;98908.97;5008507;28;20124;-85
2021/12/10 05:55:13;;;;;;;14.15;8.57;;;;;;;1.18;100.00;98900.34;5010718;28;20077;-84
2021/12/10 05:57:38;;;;;;;17.08;8.60;;;;;;;1.23;100.00;98903.38;5010144;28;20052;-84
2021/12/10 06:00:08;;;;;;;13.07;8.45;;;;;;;1.24;100.00;98900.59;5026575;28;20037;-84
2021/12/10 06:02:33;;;;;;;17.65;9.15;;;;;;;1.22;100.00;98891.16;5007059;28;20090;-85
2021/12/10 06:04:59;;;;;;;12.57;7.80;;;;;;;1.21;100.00;98895.63;5025277;28;20041;-84
2021/12/10 06:07:25;;;;;;;13.48;7.78;;;;;;;1.24;100.00;98897.97;5032634;28;20033;-84
2021/12/10 06:09:50;;;;;;;11.52;7.25;;;;;;;1.22;100.00;98892.00;5028654;28;20658;-84
2021/12/10 06:12:16;;;;;;;12.48;6.78;;;;;;;1.22;100.00;98885.88;5022749;28;20050;-84
2021/12/10 06:14:42;;;;;;;14.25;7.53;;;;;;;1.24;100.00;98889.22;5024157;28;20042;-84
2021/12/10 06:17:07;;;;;;;12.23;7.00;;;;;;;1.25;100.00;98885.56;5026671;28;20033;-85
2021/12/10 06:19:33;;;;;;;14.30;6.57;;;;;;;1.23;100.00;98882.25;5012483;28;20041;-84
2021/12/10 06:21:58;;;;;;;12.27;6.78;;;;;;;1.19;100.00;98875.63;5019249;28;20048;-84
2021/12/10 06:24:24;;;;;;;14.65;8.23;;;;;;;1.20;100.00;98877.25;5029431;28;20038;-84
2021/12/10 06:26:52;;;;;;;13.45;6.93;;;;;;;1.17;100.00;98873.09;5011708;28;20623;-84
2021/12/10 06:29:19;;;;;;;11.00;7.32;;;;;;;1.20;100.00;98878.09;4995808;28;20128;-84
2021/12/10 06:31:44;;;;;;;11.50;6.90;;;;;;;1.23;100.00;98874.31;4994944;28;20280;-83
2021/12/10 06:34:10;;;;;;;10.98;5.60;;;;;;;1.21;100.00;98871.00;5029835;28;20743;-84
2021/12/10 06:36:36;;;;;;;14.05;6.13;;;;;;;1.22;100.00;98865.56;5029656;28;20069;-83
2021/12/10 06:39:04;;;;;;;10.65;6.82;;;;;;;1.23;100.00;98861.94;5029504;28;20080;-84
2021/12/10 06:41:30;;;;;;;12.80;5.70;;;;;;;1.20;100.00;98871.97;5012423;28;20037;-84
2021/12/10 06:43:56;;;;;;;12.65;6.72;;;;;;;1.22;100.00;98864.75;5028287;28;20037;-84
2021/12/10 06:46:21;;;;;;;10.55;6.00;;;;;;;1.24;100.00;98862.78;5029574;28;20482;-83
2021/12/10 06:48:47;;;;;;;14.15;6.20;;;;;;;1.22;100.00;98856.81;5010486;28;20068;-84
2021/12/10 06:51:16;;;;;;;12.82;5.63;;;;;;;1.21;100.00;98855.13;5012007;28;20439;-83
2021/12/10 06:53:43;;;;;;;13.73;7.35;;;;;;;1.23;100.00;98853.19;4994315;28;20056;-83
2021/12/10 06:56:10;;;;;;;9.73;5.68;;;;;;;1.24;100.00;98844.28;5029046;28;20042;-83
2021/12/10 06:58:35;;;;;;;11.38;5.75;;;;;;;1.17;100.00;98846.69;4995112;28;20112;-84
2021/12/10 07:01:06;;;;;;;14.10;6.15;;;;;;;1.17;100.00;98848.50;5011003;28;20442;-84
2021/12/10 07:03:33;;;;;;;11.50;5.35;;;;;;;1.17;100.00;98853.78;5011734;28;20065;-84
2021/12/10 07:06:00;;;;;;;13.73;5.80;;;;;;;1.16;100.00;98854.78;5011230;28;20155;-84
2021/12/10 07:08:28;;;;;;;12.93;6.43;;;;;;;1.17;100.00;98854.63;5012128;28;20041;-84
2021/12/10 07:10:55;;;;;;;12.25;6.00;;;;;;;1.15;100.00;98853.09;5012563;28;20041;-84
2021/12/10 07:13:20;;;;;;;14.35;6.95;;;;;;;1.17;100.00;98851.97;5032527;28;20064;-84
2021/12/10 07:15:49;;;;;;;13.30;5.78;;;;;;;1.13;100.00;98851.44;5031993;28;20044;-84
2021/12/10 07:18:16;;;;;;;11.82;5.97;;;;;;;1.17;100.00;98857.25;5033200;28;20049;-84
2021/12/10 07:20:42;;;;;;;14.48;6.13;;;;;;;1.20;100.00;98845.56;5009164;28;20124;-84
2021/12/10 07:23:11;;;;;;;13.38;6.00;;;;;;;1.18;100.00;98848.38;5032567;28;20049;-82
2021/12/10 07:25:37;;;;;;;13.07;6.73;;;;;;;1.18;100.00;98845.72;5014953;28;20054;-83
2021/12/10 07:28:03;;;;;;;11.60;6.55;;;;;;;1.19;100.00;98851.84;5032191;28;20299;-84
2021/12/10 07:30:28;;;;;;;12.35;6.10;;;;;;;1.17;100.00;98851.16;5014882;28;20041;-84
2021/12/10 07:32:56;;;;;;;13.27;6.28;;;;;;;1.21;100.00;98852.50;5027412;28;20064;-83
2021/12/10 07:35:23;;;;;;;11.90;6.05;;;;;;;1.19;100.00;98849.19;5006492;28;20172;-84
2021/12/10 07:37:49;;;;;;;13.80;6.13;;;;;;;1.21;100.00;98847.22;5023860;28;20048;-84
2021/12/10 07:40:19;;;;;;;11.30;6.55;;;;;;;1.23;100.00;98845.25;5007316;28;20041;-84
2021/12/10 07:42:46;;;;;;;14.23;6.38;;;;;;;1.20;100.00;98841.09;4987118;28;20038;-84
2021/12/10 07:45:12;;;;;;;14.75;6.30;;;;;;;1.20;100.00;98845.56;5002899;28;20177;-84
2021/12/10 07:47:39;;;;;;;15.63;6.60;;;;;;;1.21;100.00;98849.84;5006636;28;21213;-83
2021/12/10 07:50:17;;;;;;;13.15;6.97;;;;;;;1.24;100.00;98844.28;5002026;28;20061;-83
2021/12/10 07:52:54;;;;;;;11.73;5.20;;;;;;;1.23;100.00;98845.25;5023729;28;20048;-84
2021/12/10 07:55:24;;;;;;;11.23;5.88;;;;;;;1.19;100.00;98850.03;5030997;28;20045;-84
2021/12/10 07:57:51;;;;;;;10.18;6.13;;;;;;;1.26;100.00;98852.88;5025677;28;20049;-84
2021/12/10 08:00:20;;;;;;;13.05;5.82;;;;;;;1.24;100.00;98842.47;5025004;28;20037;-83
2021/12/10 08:03:04;;;;;;;;;;;;;;;1.27;100.00;98849.28;4992299;28;20060;-83
2021/12/10 08:05:30;;;;;;;12.00;5.45;;;;;;;1.23;100.00;98853.19;5037424;28;19963;-83
2021/12/10 08:07:59;;;;;;;13.75;5.28;;;;;;;1.27;100.00;98850.09;5026361;28;20033;-84
2021/12/10 08:10:27;;;;;;;8.80;4.83;;;;;;;1.31;100.00;98847.97;5025461;28;20048;-83
2021/12/10 08:12:53;;;;;;;9.20;4.78;;;;;;;1.39;100.00;98849.84;5019055;28;20115;-84
2021/12/10 08:15:21;;;;;;;12.43;4.70;;;;;;;1.42;100.00;98841.63;4988344;28;20042;-84
2021/12/10 08:17:48;;;;;;;11.85;5.00;;;;;;;1.46;100.00;98846.44;5019159;28;20083;-84
2021/12/10 08:20:19;;;;;;;10.73;5.13;;;;;;;1.46;100.00;98843.78;5030801;28;20052;-84
2021/12/10 08:22:45;;;;;;;10.65;5.10;;;;;;;1.50;100.00;98836.41;5006767;28;20049;-84
2021/12/10 08:25:17;;;;;;;9.60;4.68;;;;;;;1.51;100.00;98838.88;5002809;28;20401;-84
2021/12/10 08:27:43;;;;;;;12.57;5.45;;;;;;;1.56;100.00;98839.25;5008271;28;20052;-84
2021/12/10 08:30:13;;;;;;;11.68;5.38;;;;;;;1.58;100.00;98834.66;5023688;28;20045;-84
2021/12/10 08:32:45;;;;;;;9.38;4.75;;;;;;;1.63;100.00;98841.28;5036184;28;20041;-84
2021/12/10 08:35:19;;;;;;;12.30;4.60;;;;;;;1.66;100.00;98846.25;5025301;28;20537;-84
2021/12/10 08:37:46;;;;;;;9.27;5.00;;;;;;;1.70;100.00;98837.03;5026252;28;20045;-84
2021/12/10 08:40:16;;;;;;;9.50;4.93;;;;;;;1.72;100.00;98837.69;5009088;28;20065;-83
2021/12/10 08:42:44;;;;;;;10.05;5.22;;;;;;;1.74;100.00;98830.44;5019828;28;20045;-84
2021/12/10 08:45:11;;;;;;;10.82;5.03;;;;;;;1.76;100.00;98841.69;5040994;28;20056;-84
2021/12/10 08:47:37;;;;;;;11.65;5.07;;;;;;;1.78;100.00;98839.72;5004188;28;20583;-84
2021/12/10 08:50:06;;;;;;;12.18;5.15;;;;;;;1.81;100.00;98842.03;5004456;28;20050;-83
2021/12/10 08:52:32;;;;;;;6.65;3.70;;;;;;;1.82;100.00;98843.72;5036343;28;20115;-84
2021/12/10 08:54:58;;;;;;;12.30;4.00;;;;;;;1.85;100.00;98843.41;5018857;28;20033;-84
2021/12/10 08:57:26;;;;;;;9.02;4.65;;;;;;;1.87;100.00;98838.81;4991066;28;20091;-83
2021/12/10 08:59:53;;;;;;;9.90;4.30;;;;;;;1.90;100.00;98841.13;5019969;28;20489;-84
2021/12/10 09:02:25;;;;;;;8.90;4.18;;;;;;;1.95;100.00;98835.34;5022616;28;20490;-84
2021/12/10 09:04:50;;;;;;;11.02;4.57;;;;;;;1.98;100.00;98835.03;5003990;28;20063;-83
2021/12/10 09:07:17;;;;;;;12.65;4.65;;;;;;;2.01;100.00;98830.28;4989811;28;20486;-84
2021/12/10 09:09:48;;;;;;;9.98;4.80;;;;;;;2.03;100.00;98830.94;5003587;28;20690;-84
2021/12/10 09:12:21;;;;;;;9.57;4.38;;;;;;;2.05;100.00;98824.69;5027176;28;20045;-84
2021/12/10 09:14:50;;;;;;;13.48;4.97;;;;;;;2.08;100.00;98829.66;5040494;28;20956;-84
2021/12/10 09:17:26;;;;;;;11.07;4.47;;;;;;;2.11;100.00;98840.75;5003620;28;20046;-85
2021/12/10 09:19:54;;;;;;;8.20;4.13;;;;;;;2.14;100.00;98836.97;4999076;28;20049;-84
2021/12/10 09:22:23;;;;;;;8.98;4.45;;;;;;;2.19;100.00;98837.31;4992921;28;20494;-84
2021/12/10 09:24:54;;;;;;;9.02;4.47;;;;;;;2.23;100.00;98846.59;5017524;28;20041;-84
2021/12/10 09:27:23;;;;;;;8.82;4.38;;;;;;;2.29;100.00;98843.31;5023104;28;20077;-84
2021/12/10 09:29:53;;;;;;;9.30;4.15;;;;;;;2.30;100.00;98847.59;5013112;28;20038;-84
2021/12/10 09:32:24;;;;;;;9.18;4.20;;;;;;;2.34;100.00;98833.06;5015227;28;20403;-84
2021/12/10 09:35:02;;;;;;;8.30;4.38;;;;;;;2.37;100.00;98834.56;5007827;28;20041;-83
2021/12/10 09:37:29;;;;;;;7.10;3.72;;;;;;;2.40;100.00;98837.72;5020942;28;20099;-84
2021/12/10 09:39:56;;;;;;;5.80;3.20;;;;;;;2.43;100.00;98833.94;5022334;28;20043;-84
2021/12/10 09:42:22;;;;;;;9.27;3.88;;;;;;;2.47;100.00;98828.16;4989128;28;20052;-84
2021/12/10 09:44:53;;;;;;;8.90;4.22;;;;;;;2.52;100.00;98837.44;5021479;28;20124;-84
2021/12/10 09:47:22;;;;;;;10.20;4.35;;;;;;;2.56;100.00;98838.75;4991793;28;20133;-84
2021/12/10 09:49:55;;;;;;;8.13;3.50;;;;;;;2.58;100.00;98842.09;5014309;28;20080;-84
2021/12/10 09:52:23;;;;;;;6.60;3.70;;;;;;;2.60;100.00;98845.41;5020258;28;20053;-84
2021/12/10 09:54:57;;;;;;;11.57;4.28;;;;;;;2.63;100.00;98839.78;4999854;28;20124;-84
2021/12/10 09:57:30;;;;;;;9.68;3.67;;;;;;;2.65;100.00;98840.47;5005215;28;20048;-84
2021/12/10 09:59:57;;;;;;;10.93;3.92;;;;;;;2.67;100.00;98827.88;5024526;28;20041;-84
2021/12/10 10:02:25;;;;;;;7.18;3.00;;;;;;;2.71;100.00;98837.16;5003075;28;20489;-84
2021/12/10 10:04:54;;;;;;;8.75;3.30;;;;;;;2.71;100.00;98826.56;5015898;28;20050;-84
2021/12/10 10:07:22;;;;;;;;;;;;;;;2.75;100.00;98822.59;5007991;28;20033;-84
2021/12/10 10:09:52;;;;;;;4.83;3.13;;;;;;;2.69;100.00;98820.59;5008459;28;19913;-84
2021/12/10 10:12:29;;;;;;;7.22;3.20;;;;;;;2.74;100.00;98815.66;5015867;28;20033;-84
2021/12/10 10:14:56;;;;;;;7.78;3.40;;;;;;;2.80;100.00;98817.66;5022100;28;20478;-84
2021/12/10 10:17:23;;;;;;;8.23;3.38;;;;;;;2.84;100.00;98816.31;4987662;28;20453;-84
2021/12/10 10:19:51;;;;;;;6.72;3.40;;;;;;;2.88;100.00;98807.06;5021260;28;20064;-84
2021/12/10 10:22:23;;;;;;;10.27;3.80;;;;;;;2.92;100.00;98810.22;5005875;28;20041;-84
2021/12/10 10:24:52;;;;;;;7.85;3.42;;;;;;;2.90;100.00;98813.03;5005477;28;20045;-84
2021/12/10 10:27:31;;;;;;;11.77;3.72;;;;;;;2.92;100.00;98819.00;5019717;28;20041;-84
2021/12/10 10:30:25;;;;;;;8.88;3.60;;;;;;;2.92;100.00;98813.69;5022394;28;20061;-84
2021/12/10 10:32:53;;;;;;;6.43;3.25;;;;;;;2.91;99.96;98800.63;5021564;28;20128;-84
2021/12/10 10:35:23;;;;;;;7.85;3.58;;;;;;;2.92;99.30;98805.75;5022187;28;20665;-84
2021/12/10 10:37:53;;;;;;;8.68;3.75;;;;;;;3.00;100.00;98804.13;5021309;28;20065;-84
2021/12/10 10:40:23;;;;;;;6.50;3.28;;;;;;;2.99;99.47;98803.25;5023986;28;20046;-84
2021/12/10 10:42:51;;;;;;;9.57;3.50;;;;;;;3.08;100.00;98804.94;5018257;28;20050;-84
2021/12/10 10:45:23;;;;;;;9.00;3.10;;;;;;;3.05;99.00;98802.63;5021388;28;20038;-84
2021/12/10 10:47:51;;;;;;;8.68;3.58;;;;;;;3.05;98.72;98807.94;5027301;28;20060;-84
2021/12/10 10:50:33;;;;;;;7.18;3.53;;;;;;;3.03;98.75;98804.59;5028992;28;20037;-84
2021/12/10 10:53:10;;;;;;;9.48;3.75;;;;;;;3.05;99.11;98801.78;4995349;28;20041;-84
2021/12/10 10:56:03;;;;;;;8.68;3.45;;;;;;;3.05;98.43;98805.28;5012444;28;20037;-84
2021/12/10 10:58:40;;;;;;;7.75;3.45;;;;;;;3.08;98.41;98807.59;5011624;28;20548;-84
2021/12/10 11:01:24;;;;;;;7.13;3.15;;;;;;;3.05;98.40;98802.63;5031132;28;20040;-84
2021/12/10 11:04:02;;;;;;;9.10;3.38;;;;;;;3.09;98.55;98809.25;5026453;28;20095;-84
2021/12/10 11:06:56;;;;;;;7.20;3.47;;;;;;;3.11;98.89;98803.78;5045418;28;20067;-84
2021/12/10 11:09:30;;;;;;;9.00;3.35;;;;;;;3.12;99.39;98813.38;4991661;28;20121;-84
2021/12/10 11:12:04;;;;;;;6.10;3.35;;;;;;;3.12;98.80;98816.03;5029635;28;20370;-84
2021/12/10 11:14:39;;;;;;;8.90;3.33;;;;;;;3.13;98.73;98820.34;5029112;28;20448;-84
2021/12/10 11:17:14;;;;;;;9.00;3.58;;;;;;;3.13;98.12;98812.38;5004551;28;20084;-84
2021/12/10 11:20:13;;;;;;;7.40;2.97;;;;;;;3.13;97.33;98815.03;5007007;28;20434;-84
2021/12/10 11:22:57;;;;;;;7.82;2.58;;;;;;;3.12;98.45;98810.75;4994324;28;20163;-84
2021/12/10 11:25:28;;;;;;;7.07;3.10;;;;;;;3.12;97.73;98800.13;4992839;28;20073;-84
2021/12/10 11:28:04;;;;;;;8.90;3.40;;;;;;;3.15;98.77;98803.28;4993434;28;20041;-84
2021/12/10 11:30:31;;;;;;;8.55;3.63;;;;;;;3.16;99.65;98794.34;5026517;28;20069;-84
2021/12/10 11:33:15;;;;;;;8.55;3.17;;;;;;;3.18;98.49;98796.81;5019802;28;20042;-84
2021/12/10 11:35:51;;;;;;;11.32;3.88;;;;;;;3.21;98.68;98790.38;5026445;28;20041;-84
2021/12/10 11:38:20;;;;;;;10.15;3.60;;;;;;;3.22;98.86;98794.66;5003844;28;20132;-84
2021/12/10 11:41:00;;;;;;;9.73;3.13;;;;;;;3.26;98.52;98802.13;5024489;28;20045;-84
2021/12/10 11:43:43;;;;;;;6.25;3.47;;;;;;;3.29;98.72;98800.97;5028348;28;21718;-84
2021/12/10 11:48:50;;;;;;;6.05;3.58;;;;;;;3.29;97.88;98796.50;5027300;28;20045;-84
2021/12/10 11:51:19;;;;;;;7.47;3.25;;;;;;;3.31;98.19;98796.31;5010106;28;20485;-84
2021/12/10 11:53:56;;;;;;;7.65;3.55;;;;;;;3.34;99.05;98791.53;5026856;28;20103;-84